sensor_id;sensor_type;location;lat;lon;timestamp;P1;durP1;ratioP1;P2;durP2;ratioP2
41623;SDS011;27319;50.306;18.926;2023-08-20T00:03:34;18.08;;;12.57;;
41623;SDS011;27319;50.306;18.926;2023-08-20T00:07:35;17.80;;;12.73;;
41623;SDS011;27319;50.306;18.926;2023-08-20T00:11:36;16.83;;;12.55;;
41623;SDS011;27319;50.306;18.926;2023-08-20T00:15:37;18.27;;;12.88;;
41623;SDS011;27319;50.306;18.926;2023-08-20T00:19:37;17.17;;;11.48;;
41623;SDS011;27319;50.306;18.926;2023-08-20T00:23:38;18.23;;;13.35;;
41623;SDS011;27319;50.306;18.926;2023-08-20T00:27:39;18.38;;;12.52;;
41623;SDS011;27319;50.306;18.926;2023-08-20T00:31:40;17.25;;;12.48;;
41623;SDS011;27319;50.306;18.926;2023-08-20T00:35:40;16.67;;;12.18;;
41623;SDS011;27319;50.306;18.926;2023-08-20T00:39:41;15.40;;;12.07;;
41623;SDS011;27319;50.306;18.926;2023-08-20T00:43:42;17.17;;;12.88;;
41623;SDS011;27319;50.306;18.926;2023-08-20T00:47:43;18.25;;;13.00;;
41623;SDS011;27319;50.306;18.926;2023-08-20T00:51:44;16.95;;;12.45;;
41623;SDS011;27319;50.306;18.926;2023-08-20T00:55:44;20.33;;;12.85;;
41623;SDS011;27319;50.306;18.926;2023-08-20T00:59:47;18.48;;;12.68;;
41623;SDS011;27319;50.306;18.926;2023-08-20T01:03:46;15.25;;;11.85;;
41623;SDS011;27319;50.306;18.926;2023-08-20T01:07:48;15.35;;;12.25;;
41623;SDS011;27319;50.306;18.926;2023-08-20T01:11:52;17.40;;;12.00;;
41623;SDS011;27319;50.306;18.926;2023-08-20T01:15:50;14.63;;;11.65;;
41623;SDS011;27319;50.306;18.926;2023-08-20T01:19:51;17.58;;;11.60;;
41623;SDS011;27319;50.306;18.926;2023-08-20T01:30:57;16.92;;;11.35;;
41623;SDS011;27319;50.306;18.926;2023-08-20T01:34:57;17.10;;;11.45;;
41623;SDS011;27319;50.306;18.926;2023-08-20T01:38:58;16.75;;;10.63;;
41623;SDS011;27319;50.306;18.926;2023-08-20T01:42:59;14.93;;;11.50;;
41623;SDS011;27319;50.306;18.926;2023-08-20T01:47:00;16.73;;;12.05;;
41623;SDS011;27319;50.306;18.926;2023-08-20T01:51:01;15.80;;;12.27;;
41623;SDS011;27319;50.306;18.926;2023-08-20T01:55:03;18.85;;;12.68;;
41623;SDS011;27319;50.306;18.926;2023-08-20T01:59:03;18.60;;;12.80;;
41623;SDS011;27319;50.306;18.926;2023-08-20T02:03:04;16.95;;;12.05;;
41623;SDS011;27319;50.306;18.926;2023-08-20T02:07:05;15.60;;;12.02;;
41623;SDS011;27319;50.306;18.926;2023-08-20T02:11:05;13.15;;;11.65;;
41623;SDS011;27319;50.306;18.926;2023-08-20T02:15:06;16.20;;;11.80;;
41623;SDS011;27319;50.306;18.926;2023-08-20T02:19:07;14.50;;;12.27;;
41623;SDS011;27319;50.306;18.926;2023-08-20T02:23:07;14.25;;;12.20;;
41623;SDS011;27319;50.306;18.926;2023-08-20T02:27:08;31.80;;;12.43;;
41623;SDS011;27319;50.306;18.926;2023-08-20T02:31:09;14.93;;;11.88;;
41623;SDS011;27319;50.306;18.926;2023-08-20T02:35:10;14.10;;;11.45;;
41623;SDS011;27319;50.306;18.926;2023-08-20T02:39:13;13.93;;;10.77;;
41623;SDS011;27319;50.306;18.926;2023-08-20T02:43:11;15.40;;;10.95;;
41623;SDS011;27319;50.306;18.926;2023-08-20T02:47:12;15.07;;;11.00;;
41623;SDS011;27319;50.306;18.926;2023-08-20T02:51:13;14.65;;;10.52;;
41623;SDS011;27319;50.306;18.926;2023-08-20T02:55:13;15.68;;;12.02;;
41623;SDS011;27319;50.306;18.926;2023-08-20T02:59:14;16.55;;;12.13;;
41623;SDS011;27319;50.306;18.926;2023-08-20T03:03:15;15.80;;;11.52;;
41623;SDS011;27319;50.306;18.926;2023-08-20T03:07:16;17.30;;;11.90;;
41623;SDS011;27319;50.306;18.926;2023-08-20T03:11:16;12.93;;;10.70;;
41623;SDS011;27319;50.306;18.926;2023-08-20T03:15:17;16.08;;;12.15;;
41623;SDS011;27319;50.306;18.926;2023-08-20T03:19:18;16.30;;;11.98;;
41623;SDS011;27319;50.306;18.926;2023-08-20T03:23:19;15.50;;;12.07;;
41623;SDS011;27319;50.306;18.926;2023-08-20T03:27:20;13.57;;;10.88;;
41623;SDS011;27319;50.306;18.926;2023-08-20T03:31:20;13.93;;;11.35;;
41623;SDS011;27319;50.306;18.926;2023-08-20T03:35:21;14.63;;;11.25;;
41623;SDS011;27319;50.306;18.926;2023-08-20T03:39:22;17.20;;;11.30;;
41623;SDS011;27319;50.306;18.926;2023-08-20T03:43:22;15.02;;;12.20;;
41623;SDS011;27319;50.306;18.926;2023-08-20T03:47:23;14.52;;;11.90;;
41623;SDS011;27319;50.306;18.926;2023-08-20T03:51:24;16.58;;;11.90;;
41623;SDS011;27319;50.306;18.926;2023-08-20T03:55:25;14.60;;;11.52;;
41623;SDS011;27319;50.306;18.926;2023-08-20T03:59:29;15.20;;;11.27;;
41623;SDS011;27319;50.306;18.926;2023-08-20T04:03:29;14.38;;;11.30;;
41623;SDS011;27319;50.306;18.926;2023-08-20T04:07:29;16.45;;;11.93;;
41623;SDS011;27319;50.306;18.926;2023-08-20T04:11:30;17.10;;;11.80;;
41623;SDS011;27319;50.306;18.926;2023-08-20T04:15:31;13.32;;;11.27;;
41623;SDS011;27319;50.306;18.926;2023-08-20T04:19:32;14.48;;;11.52;;
41623;SDS011;27319;50.306;18.926;2023-08-20T04:23:33;17.13;;;11.65;;
41623;SDS011;27319;50.306;18.926;2023-08-20T04:27:34;12.77;;;11.32;;
41623;SDS011;27319;50.306;18.926;2023-08-20T04:31:34;15.82;;;10.73;;
41623;SDS011;27319;50.306;18.926;2023-08-20T04:35:35;18.67;;;11.45;;
41623;SDS011;27319;50.306;18.926;2023-08-20T04:39:36;16.88;;;13.27;;
41623;SDS011;27319;50.306;18.926;2023-08-20T04:42:37;16.40;;;11.82;;
41623;SDS011;27319;50.306;18.926;2023-08-20T04:45:38;16.58;;;12.50;;
41623;SDS011;27319;50.306;18.926;2023-08-20T04:48:39;15.43;;;12.35;;
41623;SDS011;27319;50.306;18.926;2023-08-20T04:51:40;14.68;;;11.77;;
41623;SDS011;27319;50.306;18.926;2023-08-20T04:54:41;16.48;;;11.63;;
41623;SDS011;27319;50.306;18.926;2023-08-20T04:57:42;15.20;;;11.85;;
41623;SDS011;27319;50.306;18.926;2023-08-20T05:00:43;25.38;;;12.95;;
41623;SDS011;27319;50.306;18.926;2023-08-20T05:03:44;20.65;;;13.95;;
41623;SDS011;27319;50.306;18.926;2023-08-20T05:06:45;16.42;;;12.82;;
41623;SDS011;27319;50.306;18.926;2023-08-20T05:09:46;16.63;;;12.90;;
41623;SDS011;27319;50.306;18.926;2023-08-20T05:13:49;18.45;;;13.32;;
41623;SDS011;27319;50.306;18.926;2023-08-20T05:17:48;16.98;;;13.05;;
41623;SDS011;27319;50.306;18.926;2023-08-20T05:21:49;17.80;;;14.32;;
41623;SDS011;27319;50.306;18.926;2023-08-20T05:25:50;18.15;;;13.98;;
41623;SDS011;27319;50.306;18.926;2023-08-20T05:29:50;20.38;;;13.98;;
41623;SDS011;27319;50.306;18.926;2023-08-20T05:33:51;19.63;;;16.15;;
41623;SDS011;27319;50.306;18.926;2023-08-20T05:37:52;19.85;;;16.65;;
41623;SDS011;27319;50.306;18.926;2023-08-20T05:41:53;25.30;;;17.10;;
41623;SDS011;27319;50.306;18.926;2023-08-20T05:45:55;21.02;;;15.38;;
41623;SDS011;27319;50.306;18.926;2023-08-20T05:49:55;28.35;;;17.92;;
41623;SDS011;27319;50.306;18.926;2023-08-20T05:53:56;26.05;;;17.40;;
41623;SDS011;27319;50.306;18.926;2023-08-20T05:57:57;24.70;;;15.27;;
41623;SDS011;27319;50.306;18.926;2023-08-20T06:02:00;20.50;;;15.98;;
41623;SDS011;27319;50.306;18.926;2023-08-20T06:05:59;23.35;;;18.70;;
41623;SDS011;27319;50.306;18.926;2023-08-20T06:10:00;24.55;;;17.15;;
41623;SDS011;27319;50.306;18.926;2023-08-20T06:14:00;24.80;;;16.92;;
41623;SDS011;27319;50.306;18.926;2023-08-20T06:18:01;23.85;;;17.17;;
41623;SDS011;27319;50.306;18.926;2023-08-20T06:22:02;21.45;;;14.57;;
41623;SDS011;27319;50.306;18.926;2023-08-20T06:26:03;25.02;;;15.13;;
41623;SDS011;27319;50.306;18.926;2023-08-20T06:30:01;24.33;;;16.45;;
41623;SDS011;27319;50.306;18.926;2023-08-20T06:34:02;20.42;;;13.85;;
41623;SDS011;27319;50.306;18.926;2023-08-20T06:38:02;19.98;;;14.40;;
41623;SDS011;27319;50.306;18.926;2023-08-20T06:42:03;21.73;;;13.40;;
41623;SDS011;27319;50.306;18.926;2023-08-20T06:46:04;18.38;;;13.75;;
41623;SDS011;27319;50.306;18.926;2023-08-20T06:50:05;21.17;;;14.52;;
41623;SDS011;27319;50.306;18.926;2023-08-20T06:54:05;19.85;;;13.70;;
41623;SDS011;27319;50.306;18.926;2023-08-20T06:58:06;15.43;;;12.68;;
41623;SDS011;27319;50.306;18.926;2023-08-20T07:02:07;18.33;;;12.60;;
41623;SDS011;27319;50.306;18.926;2023-08-20T07:06:08;24.38;;;14.05;;
41623;SDS011;27319;50.306;18.926;2023-08-20T07:10:09;17.75;;;13.43;;
41623;SDS011;27319;50.306;18.926;2023-08-20T07:14:09;13.82;;;12.25;;
41623;SDS011;27319;50.306;18.926;2023-08-20T07:18:10;13.82;;;11.93;;
41623;SDS011;27319;50.306;18.926;2023-08-20T07:22:11;19.48;;;13.50;;
41623;SDS011;27319;50.306;18.926;2023-08-20T07:26:11;19.25;;;11.27;;
41623;SDS011;27319;50.306;18.926;2023-08-20T07:30:12;15.10;;;11.57;;
41623;SDS011;27319;50.306;18.926;2023-08-20T07:34:13;18.23;;;12.30;;
41623;SDS011;27319;50.306;18.926;2023-08-20T07:38:14;16.10;;;12.68;;
41623;SDS011;27319;50.306;18.926;2023-08-20T07:42:14;19.50;;;12.40;;
41623;SDS011;27319;50.306;18.926;2023-08-20T07:46:15;14.13;;;11.45;;
41623;SDS011;27319;50.306;18.926;2023-08-20T07:50:16;13.63;;;10.27;;
41623;SDS011;27319;50.306;18.926;2023-08-20T07:54:17;14.23;;;10.68;;
41623;SDS011;27319;50.306;18.926;2023-08-20T07:58:18;17.35;;;11.70;;
41623;SDS011;27319;50.306;18.926;2023-08-20T08:02:19;19.05;;;12.57;;
41623;SDS011;27319;50.306;18.926;2023-08-20T08:05:56;16.67;;;11.02;;
41623;SDS011;27319;50.306;18.926;2023-08-20T08:09:14;16.17;;;12.68;;
41623;SDS011;27319;50.306;18.926;2023-08-20T08:12:22;15.05;;;11.05;;
41623;SDS011;27319;50.306;18.926;2023-08-20T08:15:24;16.95;;;11.15;;
41623;SDS011;27319;50.306;18.926;2023-08-20T08:18:25;16.80;;;11.18;;
41623;SDS011;27319;50.306;18.926;2023-08-20T08:21:26;14.25;;;10.88;;
41623;SDS011;27319;50.306;18.926;2023-08-20T08:24:27;17.65;;;10.95;;
41623;SDS011;27319;50.306;18.926;2023-08-20T08:27:28;16.55;;;10.68;;
41623;SDS011;27319;50.306;18.926;2023-08-20T08:30:29;12.27;;;9.50;;
41623;SDS011;27319;50.306;18.926;2023-08-20T08:33:30;15.23;;;10.65;;
41623;SDS011;27319;50.306;18.926;2023-08-20T08:36:31;15.48;;;10.60;;
41623;SDS011;27319;50.306;18.926;2023-08-20T08:39:32;36.70;;;12.90;;
41623;SDS011;27319;50.306;18.926;2023-08-20T08:42:33;13.52;;;9.57;;
41623;SDS011;27319;50.306;18.926;2023-08-20T08:45:34;10.20;;;9.07;;
41623;SDS011;27319;50.306;18.926;2023-08-20T08:48:35;13.10;;;9.20;;
41623;SDS011;27319;50.306;18.926;2023-08-20T08:51:36;16.98;;;9.02;;
41623;SDS011;27319;50.306;18.926;2023-08-20T08:54:39;10.98;;;9.32;;
41623;SDS011;27319;50.306;18.926;2023-08-20T08:57:40;14.40;;;10.15;;
41623;SDS011;27319;50.306;18.926;2023-08-20T09:00:41;12.73;;;8.68;;
41623;SDS011;27319;50.306;18.926;2023-08-20T09:03:42;9.88;;;7.90;;
41623;SDS011;27319;50.306;18.926;2023-08-20T09:06:50;10.80;;;8.65;;
41623;SDS011;27319;50.306;18.926;2023-08-20T09:09:57;12.98;;;8.23;;
41623;SDS011;27319;50.306;18.926;2023-08-20T09:12:59;8.52;;;7.13;;
41623;SDS011;27319;50.306;18.926;2023-08-20T09:16:03;9.30;;;8.02;;
41623;SDS011;27319;50.306;18.926;2023-08-20T09:19:05;11.75;;;9.57;;
41623;SDS011;27319;50.306;18.926;2023-08-20T09:22:08;19.15;;;9.40;;
41623;SDS011;27319;50.306;18.926;2023-08-20T09:25:09;14.18;;;9.93;;
41623;SDS011;27319;50.306;18.926;2023-08-20T09:28:19;16.00;;;9.98;;
41623;SDS011;27319;50.306;18.926;2023-08-20T09:31:22;39.70;;;12.90;;
41623;SDS011;27319;50.306;18.926;2023-08-20T09:34:37;14.43;;;10.27;;
41623;SDS011;27319;50.306;18.926;2023-08-20T09:37:41;13.85;;;9.88;;
41623;SDS011;27319;50.306;18.926;2023-08-20T09:40:45;14.60;;;10.40;;
41623;SDS011;27319;50.306;18.926;2023-08-20T09:43:48;13.43;;;9.65;;
41623;SDS011;27319;50.306;18.926;2023-08-20T09:46:57;12.32;;;9.38;;
41623;SDS011;27319;50.306;18.926;2023-08-20T09:49:58;13.13;;;8.13;;
41623;SDS011;27319;50.306;18.926;2023-08-20T09:53:03;10.40;;;7.45;;
41623;SDS011;27319;50.306;18.926;2023-08-20T09:56:10;10.55;;;6.90;;
41623;SDS011;27319;50.306;18.926;2023-08-20T09:59:20;9.48;;;7.38;;
41623;SDS011;27319;50.306;18.926;2023-08-20T10:02:22;10.63;;;7.55;;
41623;SDS011;27319;50.306;18.926;2023-08-20T10:05:39;9.40;;;6.90;;
41623;SDS011;27319;50.306;18.926;2023-08-20T10:08:41;6.53;;;5.40;;
41623;SDS011;27319;50.306;18.926;2023-08-20T10:11:43;9.95;;;5.90;;
41623;SDS011;27319;50.306;18.926;2023-08-20T10:14:44;7.60;;;6.03;;
41623;SDS011;27319;50.306;18.926;2023-08-20T10:17:46;8.65;;;5.93;;
41623;SDS011;27319;50.306;18.926;2023-08-20T10:20:50;13.70;;;6.88;;
41623;SDS011;27319;50.306;18.926;2023-08-20T10:23:52;7.68;;;6.15;;
41623;SDS011;27319;50.306;18.926;2023-08-20T10:28:23;7.78;;;5.40;;
41623;SDS011;27319;50.306;18.926;2023-08-20T10:32:14;7.10;;;6.10;;
41623;SDS011;27319;50.306;18.926;2023-08-20T10:36:24;7.15;;;5.47;;
41623;SDS011;27319;50.306;18.926;2023-08-20T10:43:52;8.70;;;6.10;;
41623;SDS011;27319;50.306;18.926;2023-08-20T10:47:53;8.02;;;6.15;;
41623;SDS011;27319;50.306;18.926;2023-08-20T10:51:56;10.30;;;6.38;;
41623;SDS011;27319;50.306;18.926;2023-08-20T10:56:06;9.40;;;5.63;;
41623;SDS011;27319;50.306;18.926;2023-08-20T10:59:58;8.23;;;5.82;;
41623;SDS011;27319;50.306;18.926;2023-08-20T11:02:58;7.72;;;6.00;;
41623;SDS011;27319;50.306;18.926;2023-08-20T11:06:02;9.57;;;6.10;;
41623;SDS011;27319;50.306;18.926;2023-08-20T11:10:01;7.20;;;5.78;;
41623;SDS011;27319;50.306;18.926;2023-08-20T11:14:11;6.38;;;5.75;;
41623;SDS011;27319;50.306;18.926;2023-08-20T11:18:09;11.68;;;5.28;;
41623;SDS011;27319;50.306;18.926;2023-08-20T11:22:09;6.65;;;5.95;;
41623;SDS011;27319;50.306;18.926;2023-08-20T11:26:10;7.43;;;5.15;;
41623;SDS011;27319;50.306;18.926;2023-08-20T11:30:11;9.32;;;5.90;;
41623;SDS011;27319;50.306;18.926;2023-08-20T11:34:12;8.50;;;4.80;;
41623;SDS011;27319;50.306;18.926;2023-08-20T11:38:12;7.53;;;5.70;;
41623;SDS011;27319;50.306;18.926;2023-08-20T11:42:13;7.18;;;5.18;;
41623;SDS011;27319;50.306;18.926;2023-08-20T11:46:14;6.30;;;5.70;;
41623;SDS011;27319;50.306;18.926;2023-08-20T11:49:16;8.63;;;5.93;;
41623;SDS011;27319;50.306;18.926;2023-08-20T11:52:18;7.13;;;6.00;;
41623;SDS011;27319;50.306;18.926;2023-08-20T11:55:22;7.88;;;5.90;;
41623;SDS011;27319;50.306;18.926;2023-08-20T11:58:28;6.03;;;5.43;;
41623;SDS011;27319;50.306;18.926;2023-08-20T12:01:30;7.00;;;5.72;;
41623;SDS011;27319;50.306;18.926;2023-08-20T12:04:32;6.63;;;5.45;;
41623;SDS011;27319;50.306;18.926;2023-08-20T12:07:33;6.10;;;5.13;;
41623;SDS011;27319;50.306;18.926;2023-08-20T12:10:34;6.22;;;5.38;;
41623;SDS011;27319;50.306;18.926;2023-08-20T12:13:35;13.32;;;5.55;;
41623;SDS011;27319;50.306;18.926;2023-08-20T12:16:36;8.05;;;5.72;;
41623;SDS011;27319;50.306;18.926;2023-08-20T12:19:37;5.65;;;4.65;;
41623;SDS011;27319;50.306;18.926;2023-08-20T12:22:38;6.03;;;5.32;;
41623;SDS011;27319;50.306;18.926;2023-08-20T12:25:40;5.82;;;5.00;;
41623;SDS011;27319;50.306;18.926;2023-08-20T12:28:41;5.50;;;5.00;;
41623;SDS011;27319;50.306;18.926;2023-08-20T12:31:42;6.90;;;5.63;;
41623;SDS011;27319;50.306;18.926;2023-08-20T12:34:43;5.75;;;5.20;;
41623;SDS011;27319;50.306;18.926;2023-08-20T12:37:44;6.78;;;4.70;;
41623;SDS011;27319;50.306;18.926;2023-08-20T12:40:45;10.75;;;5.18;;
41623;SDS011;27319;50.306;18.926;2023-08-20T12:43:46;6.55;;;4.50;;
41623;SDS011;27319;50.306;18.926;2023-08-20T12:46:47;6.50;;;5.57;;
41623;SDS011;27319;50.306;18.926;2023-08-20T12:49:48;5.38;;;4.88;;
41623;SDS011;27319;50.306;18.926;2023-08-20T12:52:49;5.95;;;5.10;;
41623;SDS011;27319;50.306;18.926;2023-08-20T12:55:51;5.82;;;5.15;;
41623;SDS011;27319;50.306;18.926;2023-08-20T12:58:52;8.15;;;5.57;;
41623;SDS011;27319;50.306;18.926;2023-08-20T13:01:53;5.95;;;5.35;;
41623;SDS011;27319;50.306;18.926;2023-08-20T13:05:54;5.97;;;5.47;;
41623;SDS011;27319;50.306;18.926;2023-08-20T13:08:59;8.10;;;5.70;;
41623;SDS011;27319;50.306;18.926;2023-08-20T13:12:00;7.18;;;5.40;;
41623;SDS011;27319;50.306;18.926;2023-08-20T13:15:04;7.13;;;5.68;;
41623;SDS011;27319;50.306;18.926;2023-08-20T13:18:12;7.10;;;6.50;;
41623;SDS011;27319;50.306;18.926;2023-08-20T13:21:14;6.50;;;5.78;;
41623;SDS011;27319;50.306;18.926;2023-08-20T13:24:15;6.82;;;5.40;;
41623;SDS011;27319;50.306;18.926;2023-08-20T13:27:16;8.00;;;5.45;;
41623;SDS011;27319;50.306;18.926;2023-08-20T13:30:17;6.03;;;5.43;;
41623;SDS011;27319;50.306;18.926;2023-08-20T13:33:19;7.38;;;5.72;;
41623;SDS011;27319;50.306;18.926;2023-08-20T13:36:20;6.40;;;5.63;;
41623;SDS011;27319;50.306;18.926;2023-08-20T13:39:21;6.13;;;5.03;;
41623;SDS011;27319;50.306;18.926;2023-08-20T13:42:27;7.68;;;5.10;;
41623;SDS011;27319;50.306;18.926;2023-08-20T13:45:32;9.35;;;5.50;;
41623;SDS011;27319;50.306;18.926;2023-08-20T13:48:36;6.78;;;5.60;;
41623;SDS011;27319;50.306;18.926;2023-08-20T13:51:37;5.93;;;5.32;;
41623;SDS011;27319;50.306;18.926;2023-08-20T13:54:38;5.75;;;5.20;;
41623;SDS011;27319;50.306;18.926;2023-08-20T13:57:39;5.80;;;5.18;;
41623;SDS011;27319;50.306;18.926;2023-08-20T14:00:40;5.95;;;5.15;;
41623;SDS011;27319;50.306;18.926;2023-08-20T14:03:41;7.28;;;6.00;;
41623;SDS011;27319;50.306;18.926;2023-08-20T14:06:44;8.82;;;6.43;;
41623;SDS011;27319;50.306;18.926;2023-08-20T14:09:46;7.03;;;5.93;;
41623;SDS011;27319;50.306;18.926;2023-08-20T14:12:47;5.80;;;5.30;;
41623;SDS011;27319;50.306;18.926;2023-08-20T14:15:48;5.80;;;5.20;;
41623;SDS011;27319;50.306;18.926;2023-08-20T14:18:49;8.70;;;6.20;;
41623;SDS011;27319;50.306;18.926;2023-08-20T14:21:50;6.25;;;5.10;;
41623;SDS011;27319;50.306;18.926;2023-08-20T14:24:52;6.25;;;5.50;;
41623;SDS011;27319;50.306;18.926;2023-08-20T14:27:53;10.25;;;5.18;;
41623;SDS011;27319;50.306;18.926;2023-08-20T14:30:53;5.68;;;5.18;;
41623;SDS011;27319;50.306;18.926;2023-08-20T14:33:57;6.13;;;5.50;;
41623;SDS011;27319;50.306;18.926;2023-08-20T14:38:05;5.78;;;5.28;;
41623;SDS011;27319;50.306;18.926;2023-08-20T14:42:06;6.05;;;5.20;;
41623;SDS011;27319;50.306;18.926;2023-08-20T14:45:07;5.00;;;4.30;;
41623;SDS011;27319;50.306;18.926;2023-08-20T14:48:08;5.63;;;4.97;;
41623;SDS011;27319;50.306;18.926;2023-08-20T14:51:09;5.10;;;4.60;;
41623;SDS011;27319;50.306;18.926;2023-08-20T14:55:10;5.35;;;4.55;;
41623;SDS011;27319;50.306;18.926;2023-08-20T14:59:11;5.03;;;4.55;;
41623;SDS011;27319;50.306;18.926;2023-08-20T15:03:11;5.05;;;4.55;;
41623;SDS011;27319;50.306;18.926;2023-08-20T15:07:12;7.00;;;4.70;;
41623;SDS011;27319;50.306;18.926;2023-08-20T15:11:13;5.05;;;4.57;;
41623;SDS011;27319;50.306;18.926;2023-08-20T15:15:14;5.80;;;5.05;;
41623;SDS011;27319;50.306;18.926;2023-08-20T15:19:15;4.93;;;4.43;;
41623;SDS011;27319;50.306;18.926;2023-08-20T15:23:23;8.55;;;4.53;;
41623;SDS011;27319;50.306;18.926;2023-08-20T15:27:23;5.40;;;4.90;;
41623;SDS011;27319;50.306;18.926;2023-08-20T15:31:23;5.65;;;5.15;;
41623;SDS011;27319;50.306;18.926;2023-08-20T15:35:24;5.30;;;4.80;;
41623;SDS011;27319;50.306;18.926;2023-08-20T15:38:25;6.22;;;4.95;;
41623;SDS011;27319;50.306;18.926;2023-08-20T15:41:27;5.35;;;4.85;;
41623;SDS011;27319;50.306;18.926;2023-08-20T15:44:29;5.63;;;5.07;;
41623;SDS011;27319;50.306;18.926;2023-08-20T15:47:30;5.57;;;4.97;;
41623;SDS011;27319;50.306;18.926;2023-08-20T15:50:31;7.53;;;4.88;;
41623;SDS011;27319;50.306;18.926;2023-08-20T15:53:33;5.00;;;4.50;;
41623;SDS011;27319;50.306;18.926;2023-08-20T15:56:36;7.78;;;4.55;;
41623;SDS011;27319;50.306;18.926;2023-08-20T15:59:38;5.28;;;4.70;;
41623;SDS011;27319;50.306;18.926;2023-08-20T16:02:40;4.72;;;4.20;;
41623;SDS011;27319;50.306;18.926;2023-08-20T16:06:40;5.38;;;4.88;;
41623;SDS011;27319;50.306;18.926;2023-08-20T16:10:41;4.90;;;4.40;;
41623;SDS011;27319;50.306;18.926;2023-08-20T16:14:42;6.63;;;4.70;;
41623;SDS011;27319;50.306;18.926;2023-08-20T16:18:42;5.47;;;4.97;;
41623;SDS011;27319;50.306;18.926;2023-08-20T16:22:43;7.05;;;5.15;;
41623;SDS011;27319;50.306;18.926;2023-08-20T16:26:47;5.10;;;4.60;;
41623;SDS011;27319;50.306;18.926;2023-08-20T16:30:47;5.20;;;4.75;;
41623;SDS011;27319;50.306;18.926;2023-08-20T16:34:48;6.20;;;5.07;;
41623;SDS011;27319;50.306;18.926;2023-08-20T16:38:49;6.97;;;5.80;;
41623;SDS011;27319;50.306;18.926;2023-08-20T16:42:50;5.75;;;5.15;;
41623;SDS011;27319;50.306;18.926;2023-08-20T16:46:52;7.10;;;5.60;;
41623;SDS011;27319;50.306;18.926;2023-08-20T16:50:52;6.82;;;5.70;;
41623;SDS011;27319;50.306;18.926;2023-08-20T16:54:53;7.82;;;5.43;;
41623;SDS011;27319;50.306;18.926;2023-08-20T16:58:54;6.32;;;5.18;;
41623;SDS011;27319;50.306;18.926;2023-08-20T17:02:55;7.43;;;6.03;;
41623;SDS011;27319;50.306;18.926;2023-08-20T17:06:55;6.70;;;5.70;;
41623;SDS011;27319;50.306;18.926;2023-08-20T17:11:09;7.78;;;5.72;;
41623;SDS011;27319;50.306;18.926;2023-08-20T17:15:09;5.90;;;5.30;;
41623;SDS011;27319;50.306;18.926;2023-08-20T17:19:12;8.02;;;5.97;;
41623;SDS011;27319;50.306;18.926;2023-08-20T17:23:14;12.73;;;6.05;;
41623;SDS011;27319;50.306;18.926;2023-08-20T17:27:15;9.48;;;6.50;;
41623;SDS011;27319;50.306;18.926;2023-08-20T17:31:18;6.53;;;5.93;;
41623;SDS011;27319;50.306;18.926;2023-08-20T17:35:19;9.70;;;7.28;;
41623;SDS011;27319;50.306;18.926;2023-08-20T17:39:21;7.72;;;6.22;;
41623;SDS011;27319;50.306;18.926;2023-08-20T17:43:22;9.00;;;6.97;;
41623;SDS011;27319;50.306;18.926;2023-08-20T17:47:22;9.30;;;7.03;;
41623;SDS011;27319;50.306;18.926;2023-08-20T17:51:23;12.60;;;6.40;;
41623;SDS011;27319;50.306;18.926;2023-08-20T17:55:24;8.38;;;6.93;;
41623;SDS011;27319;50.306;18.926;2023-08-20T17:59:25;9.32;;;6.68;;
41623;SDS011;27319;50.306;18.926;2023-08-20T18:03:26;11.38;;;7.43;;
41623;SDS011;27319;50.306;18.926;2023-08-20T18:06:26;10.85;;;7.20;;
41623;SDS011;27319;50.306;18.926;2023-08-20T18:09:28;11.77;;;7.75;;
41623;SDS011;27319;50.306;18.926;2023-08-20T18:13:28;13.77;;;10.40;;
41623;SDS011;27319;50.306;18.926;2023-08-20T18:17:29;14.40;;;11.90;;
41623;SDS011;27319;50.306;18.926;2023-08-20T18:21:30;17.45;;;12.95;;
41623;SDS011;27319;50.306;18.926;2023-08-20T18:25:31;18.42;;;12.95;;
41623;SDS011;27319;50.306;18.926;2023-08-20T18:29:32;15.13;;;12.00;;
41623;SDS011;27319;50.306;18.926;2023-08-20T18:33:32;14.27;;;11.38;;
41623;SDS011;27319;50.306;18.926;2023-08-20T18:37:33;16.13;;;10.65;;
41623;SDS011;27319;50.306;18.926;2023-08-20T18:41:34;19.00;;;14.55;;
41623;SDS011;27319;50.306;18.926;2023-08-20T18:45:35;21.20;;;14.35;;
41623;SDS011;27319;50.306;18.926;2023-08-20T18:49:46;21.60;;;14.48;;
41623;SDS011;27319;50.306;18.926;2023-08-20T18:53:47;24.13;;;14.75;;
41623;SDS011;27319;50.306;18.926;2023-08-20T18:57:48;20.33;;;14.32;;
41623;SDS011;27319;50.306;18.926;2023-08-20T19:01:49;20.25;;;13.68;;
41623;SDS011;27319;50.306;18.926;2023-08-20T19:05:50;17.42;;;12.05;;
41623;SDS011;27319;50.306;18.926;2023-08-20T19:09:51;32.80;;;20.45;;
41623;SDS011;27319;50.306;18.926;2023-08-20T19:13:52;45.58;;;31.17;;
41623;SDS011;27319;50.306;18.926;2023-08-20T19:17:53;48.15;;;32.50;;
41623;SDS011;27319;50.306;18.926;2023-08-20T19:21:54;43.20;;;27.73;;
41623;SDS011;27319;50.306;18.926;2023-08-20T19:25:55;48.00;;;31.95;;
41623;SDS011;27319;50.306;18.926;2023-08-20T19:29:56;56.80;;;39.78;;
41623;SDS011;27319;50.306;18.926;2023-08-20T19:33:57;58.88;;;39.65;;
41623;SDS011;27319;50.306;18.926;2023-08-20T19:37:58;56.13;;;40.22;;
41623;SDS011;27319;50.306;18.926;2023-08-20T19:42:00;57.92;;;39.67;;
41623;SDS011;27319;50.306;18.926;2023-08-20T19:46:00;48.67;;;33.78;;
41623;SDS011;27319;50.306;18.926;2023-08-20T19:50:01;50.78;;;36.80;;
41623;SDS011;27319;50.306;18.926;2023-08-20T19:54:03;43.60;;;32.17;;
41623;SDS011;27319;50.306;18.926;2023-08-20T19:57:03;43.30;;;30.00;;
41623;SDS011;27319;50.306;18.926;2023-08-20T20:00:05;42.63;;;30.13;;
41623;SDS011;27319;50.306;18.926;2023-08-20T20:03:11;43.78;;;30.58;;
41623;SDS011;27319;50.306;18.926;2023-08-20T20:06:12;49.95;;;33.40;;
41623;SDS011;27319;50.306;18.926;2023-08-20T20:09:14;46.10;;;31.80;;
41623;SDS011;27319;50.306;18.926;2023-08-20T20:13:15;46.53;;;30.00;;
41623;SDS011;27319;50.306;18.926;2023-08-20T20:17:16;36.08;;;25.73;;
41623;SDS011;27319;50.306;18.926;2023-08-20T20:21:17;34.78;;;24.48;;
41623;SDS011;27319;50.306;18.926;2023-08-20T20:25:17;34.95;;;24.27;;
41623;SDS011;27319;50.306;18.926;2023-08-20T20:29:18;30.17;;;21.63;;
41623;SDS011;27319;50.306;18.926;2023-08-20T20:33:20;29.92;;;21.80;;
41623;SDS011;27319;50.306;18.926;2023-08-20T20:37:20;32.78;;;22.88;;
41623;SDS011;27319;50.306;18.926;2023-08-20T20:40:21;32.38;;;23.67;;
41623;SDS011;27319;50.306;18.926;2023-08-20T20:43:23;31.13;;;19.45;;
41623;SDS011;27319;50.306;18.926;2023-08-20T20:47:24;26.67;;;17.23;;
41623;SDS011;27319;50.306;18.926;2023-08-20T20:51:24;18.80;;;14.23;;
41623;SDS011;27319;50.306;18.926;2023-08-20T20:54:42;16.70;;;12.35;;
41623;SDS011;27319;50.306;18.926;2023-08-20T20:57:46;19.20;;;13.25;;
41623;SDS011;27319;50.306;18.926;2023-08-20T21:00:47;17.90;;;14.07;;
41623;SDS011;27319;50.306;18.926;2023-08-20T21:03:48;18.15;;;14.27;;
41623;SDS011;27319;50.306;18.926;2023-08-20T21:07:29;21.58;;;15.95;;
41623;SDS011;27319;50.306;18.926;2023-08-20T21:10:30;21.58;;;16.17;;
41623;SDS011;27319;50.306;18.926;2023-08-20T21:14:31;21.73;;;16.10;;
41623;SDS011;27319;50.306;18.926;2023-08-20T21:18:32;18.95;;;14.38;;
41623;SDS011;27319;50.306;18.926;2023-08-20T21:21:33;16.27;;;13.60;;